sensor_id;sensor_type;location;lat;lon;timestamp;P1;durP1;ratioP1;P2;durP2;ratioP2
16181;SDS011;8197;51.664;7.114;2023-09-19T00:03:51;32.17;;;3.93;;
16181;SDS011;8197;51.664;7.114;2023-09-19T00:08:54;24.77;;;2.87;;
16181;SDS011;8197;51.664;7.114;2023-09-19T00:14:01;28.90;;;3.63;;
16181;SDS011;8197;51.664;7.114;2023-09-19T00:19:06;26.17;;;3.27;;
16181;SDS011;8197;51.664;7.114;2023-09-19T00:24:10;24.43;;;3.97;;
16181;SDS011;8197;51.664;7.114;2023-09-19T00:29:14;23.13;;;3.27;;
16181;SDS011;8197;51.664;7.114;2023-09-19T00:34:17;30.47;;;3.17;;
16181;SDS011;8197;51.664;7.114;2023-09-19T00:39:21;24.40;;;3.47;;
16181;SDS011;8197;51.664;7.114;2023-09-19T00:44:28;23.70;;;3.47;;
16181;SDS011;8197;51.664;7.114;2023-09-19T00:49:31;41.50;;;3.50;;
16181;SDS011;8197;51.664;7.114;2023-09-19T00:54:35;23.90;;;3.37;;
16181;SDS011;8197;51.664;7.114;2023-09-19T00:59:40;31.73;;;4.07;;
16181;SDS011;8197;51.664;7.114;2023-09-19T01:04:43;27.23;;;3.60;;
16181;SDS011;8197;51.664;7.114;2023-09-19T01:09:47;26.57;;;3.30;;
16181;SDS011;8197;51.664;7.114;2023-09-19T01:14:54;27.97;;;3.67;;
16181;SDS011;8197;51.664;7.114;2023-09-19T01:20:15;30.80;;;3.77;;
16181;SDS011;8197;51.664;7.114;2023-09-19T01:25:42;23.40;;;3.17;;
16181;SDS011;8197;51.664;7.114;2023-09-19T01:31:11;27.23;;;3.57;;
16181;SDS011;8197;51.664;7.114;2023-09-19T01:36:16;22.77;;;3.50;;
16181;SDS011;8197;51.664;7.114;2023-09-19T01:41:21;26.50;;;3.50;;
16181;SDS011;8197;51.664;7.114;2023-09-19T01:46:30;23.30;;;3.03;;
16181;SDS011;8197;51.664;7.114;2023-09-19T01:51:42;23.63;;;3.77;;
16181;SDS011;8197;51.664;7.114;2023-09-19T01:56:50;28.40;;;3.50;;
16181;SDS011;8197;51.664;7.114;2023-09-19T02:02:01;24.37;;;3.17;;
16181;SDS011;8197;51.664;7.114;2023-09-19T02:07:06;28.10;;;3.90;;
16181;SDS011;8197;51.664;7.114;2023-09-19T02:12:10;26.70;;;3.47;;
16181;SDS011;8197;51.664;7.114;2023-09-19T02:17:16;26.43;;;3.90;;
16181;SDS011;8197;51.664;7.114;2023-09-19T02:22:19;24.23;;;3.30;;
16181;SDS011;8197;51.664;7.114;2023-09-19T02:27:22;29.87;;;3.67;;
16181;SDS011;8197;51.664;7.114;2023-09-19T02:32:26;21.90;;;3.20;;
16181;SDS011;8197;51.664;7.114;2023-09-19T02:37:31;28.67;;;3.80;;
16181;SDS011;8197;51.664;7.114;2023-09-19T02:42:36;30.63;;;4.00;;
16181;SDS011;8197;51.664;7.114;2023-09-19T02:47:41;24.63;;;3.27;;
16181;SDS011;8197;51.664;7.114;2023-09-19T02:52:44;25.00;;;3.43;;
16181;SDS011;8197;51.664;7.114;2023-09-19T02:57:50;30.03;;;3.30;;
16181;SDS011;8197;51.664;7.114;2023-09-19T03:02:57;19.83;;;2.80;;
16181;SDS011;8197;51.664;7.114;2023-09-19T03:08:01;25.70;;;3.83;;
16181;SDS011;8197;51.664;7.114;2023-09-19T03:13:04;23.87;;;3.10;;
16181;SDS011;8197;51.664;7.114;2023-09-19T03:18:12;25.70;;;3.50;;
16181;SDS011;8197;51.664;7.114;2023-09-19T03:23:15;24.40;;;3.40;;
16181;SDS011;8197;51.664;7.114;2023-09-19T03:28:18;25.73;;;3.57;;
16181;SDS011;8197;51.664;7.114;2023-09-19T03:33:24;24.23;;;3.07;;
16181;SDS011;8197;51.664;7.114;2023-09-19T03:38:27;25.10;;;3.33;;
16181;SDS011;8197;51.664;7.114;2023-09-19T03:43:31;24.20;;;3.00;;
16181;SDS011;8197;51.664;7.114;2023-09-19T03:48:36;26.10;;;3.80;;
16181;SDS011;8197;51.664;7.114;2023-09-19T03:53:39;22.23;;;4.10;;
16181;SDS011;8197;51.664;7.114;2023-09-19T03:58:42;23.10;;;3.07;;
16181;SDS011;8197;51.664;7.114;2023-09-19T04:03:47;28.40;;;3.67;;
16181;SDS011;8197;51.664;7.114;2023-09-19T04:08:51;30.50;;;3.60;;
16181;SDS011;8197;51.664;7.114;2023-09-19T04:13:55;23.40;;;3.50;;
16181;SDS011;8197;51.664;7.114;2023-09-19T04:19:00;28.53;;;5.03;;
16181;SDS011;8197;51.664;7.114;2023-09-19T04:24:04;27.83;;;3.40;;
16181;SDS011;8197;51.664;7.114;2023-09-19T04:29:08;25.80;;;3.40;;
16181;SDS011;8197;51.664;7.114;2023-09-19T04:34:13;29.03;;;3.50;;
16181;SDS011;8197;51.664;7.114;2023-09-19T04:39:18;26.57;;;4.40;;
16181;SDS011;8197;51.664;7.114;2023-09-19T04:44:22;25.17;;;3.23;;
16181;SDS011;8197;51.664;7.114;2023-09-19T04:49:26;23.60;;;3.07;;
16181;SDS011;8197;51.664;7.114;2023-09-19T04:54:29;25.93;;;2.57;;
16181;SDS011;8197;51.664;7.114;2023-09-19T04:59:32;22.53;;;2.90;;
16181;SDS011;8197;51.664;7.114;2023-09-19T05:04:36;28.80;;;3.37;;
16181;SDS011;8197;51.664;7.114;2023-09-19T05:09:40;25.60;;;3.27;;
16181;SDS011;8197;51.664;7.114;2023-09-19T05:14:43;20.73;;;2.70;;
16181;SDS011;8197;51.664;7.114;2023-09-19T05:19:47;30.77;;;3.57;;
16181;SDS011;8197;51.664;7.114;2023-09-19T05:24:50;32.87;;;4.10;;
16181;SDS011;8197;51.664;7.114;2023-09-19T05:29:54;31.20;;;4.00;;
16181;SDS011;8197;51.664;7.114;2023-09-19T05:34:58;23.33;;;3.23;;
16181;SDS011;8197;51.664;7.114;2023-09-19T05:40:01;26.43;;;3.50;;
16181;SDS011;8197;51.664;7.114;2023-09-19T05:45:08;29.13;;;3.63;;
16181;SDS011;8197;51.664;7.114;2023-09-19T05:50:14;27.30;;;3.40;;
16181;SDS011;8197;51.664;7.114;2023-09-19T05:55:18;31.07;;;5.07;;
16181;SDS011;8197;51.664;7.114;2023-09-19T06:00:22;25.47;;;3.70;;
16181;SDS011;8197;51.664;7.114;2023-09-19T06:05:27;29.50;;;4.20;;
16181;SDS011;8197;51.664;7.114;2023-09-19T06:10:31;29.57;;;2.97;;
16181;SDS011;8197;51.664;7.114;2023-09-19T06:15:35;23.93;;;3.60;;
16181;SDS011;8197;51.664;7.114;2023-09-19T06:20:40;29.13;;;3.90;;
16181;SDS011;8197;51.664;7.114;2023-09-19T06:25:45;36.20;;;3.70;;
16181;SDS011;8197;51.664;7.114;2023-09-19T06:30:49;25.90;;;4.63;;
16181;SDS011;8197;51.664;7.114;2023-09-19T06:35:53;28.13;;;4.33;;
16181;SDS011;8197;51.664;7.114;2023-09-19T06:41:00;35.20;;;3.90;;
16181;SDS011;8197;51.664;7.114;2023-09-19T06:46:06;22.93;;;3.27;;
16181;SDS011;8197;51.664;7.114;2023-09-19T06:51:10;30.97;;;3.63;;
16181;SDS011;8197;51.664;7.114;2023-09-19T06:56:16;24.30;;;3.50;;
16181;SDS011;8197;51.664;7.114;2023-09-19T07:01:19;26.23;;;3.40;;
16181;SDS011;8197;51.664;7.114;2023-09-19T07:06:24;21.43;;;3.30;;
16181;SDS011;8197;51.664;7.114;2023-09-19T07:11:26;24.83;;;3.60;;
16181;SDS011;8197;51.664;7.114;2023-09-19T07:16:30;26.10;;;3.70;;
16181;SDS011;8197;51.664;7.114;2023-09-19T07:21:34;28.17;;;4.50;;
16181;SDS011;8197;51.664;7.114;2023-09-19T07:26:39;26.17;;;3.67;;
16181;SDS011;8197;51.664;7.114;2023-09-19T07:31:42;27.67;;;3.80;;
16181;SDS011;8197;51.664;7.114;2023-09-19T07:36:47;26.10;;;3.77;;
16181;SDS011;8197;51.664;7.114;2023-09-19T07:41:50;23.93;;;3.50;;
16181;SDS011;8197;51.664;7.114;2023-09-19T07:46:53;35.90;;;3.77;;
16181;SDS011;8197;51.664;7.114;2023-09-19T07:51:57;28.60;;;4.17;;
16181;SDS011;8197;51.664;7.114;2023-09-19T07:57:00;24.83;;;3.00;;
16181;SDS011;8197;51.664;7.114;2023-09-19T08:02:03;27.03;;;3.80;;
16181;SDS011;8197;51.664;7.114;2023-09-19T08:07:08;29.17;;;3.87;;
16181;SDS011;8197;51.664;7.114;2023-09-19T08:12:12;26.00;;;3.80;;
16181;SDS011;8197;51.664;7.114;2023-09-19T08:17:16;28.63;;;3.80;;
16181;SDS011;8197;51.664;7.114;2023-09-19T08:22:20;30.63;;;4.27;;
16181;SDS011;8197;51.664;7.114;2023-09-19T08:27:24;30.03;;;4.87;;
16181;SDS011;8197;51.664;7.114;2023-09-19T08:32:29;27.37;;;4.17;;
16181;SDS011;8197;51.664;7.114;2023-09-19T08:37:33;28.60;;;4.37;;
16181;SDS011;8197;51.664;7.114;2023-09-19T08:47:56;29.23;;;4.70;;
16181;SDS011;8197;51.664;7.114;2023-09-19T08:53:19;26.17;;;3.80;;
16181;SDS011;8197;51.664;7.114;2023-09-19T08:58:31;28.87;;;3.83;;
16181;SDS011;8197;51.664;7.114;2023-09-19T09:03:42;27.90;;;4.27;;
16181;SDS011;8197;51.664;7.114;2023-09-19T09:08:51;21.90;;;3.30;;
16181;SDS011;8197;51.664;7.114;2023-09-19T09:13:54;26.10;;;3.63;;
16181;SDS011;8197;51.664;7.114;2023-09-19T09:18:58;30.23;;;4.20;;
16181;SDS011;8197;51.664;7.114;2023-09-19T09:29:41;27.13;;;4.00;;
16181;SDS011;8197;51.664;7.114;2023-09-19T09:34:49;23.93;;;4.03;;
16181;SDS011;8197;51.664;7.114;2023-09-19T09:40:00;25.47;;;3.80;;
16181;SDS011;8197;51.664;7.114;2023-09-19T09:45:21;29.60;;;3.63;;
16181;SDS011;8197;51.664;7.114;2023-09-19T09:50:30;26.63;;;3.37;;
16181;SDS011;8197;51.664;7.114;2023-09-19T09:56:03;23.70;;;3.50;;
16181;SDS011;8197;51.664;7.114;2023-09-19T10:01:10;29.17;;;3.97;;
16181;SDS011;8197;51.664;7.114;2023-09-19T10:06:17;27.90;;;4.30;;
16181;SDS011;8197;51.664;7.114;2023-09-19T10:11:30;28.00;;;4.40;;
16181;SDS011;8197;51.664;7.114;2023-09-19T10:16:33;24.47;;;3.37;;
16181;SDS011;8197;51.664;7.114;2023-09-19T10:21:37;28.93;;;3.60;;
16181;SDS011;8197;51.664;7.114;2023-09-19T10:26:43;24.73;;;3.43;;
16181;SDS011;8197;51.664;7.114;2023-09-19T10:31:47;22.60;;;3.10;;
16181;SDS011;8197;51.664;7.114;2023-09-19T10:36:51;27.23;;;4.03;;
16181;SDS011;8197;51.664;7.114;2023-09-19T10:41:57;25.57;;;3.30;;
16181;SDS011;8197;51.664;7.114;2023-09-19T10:47:06;26.40;;;4.00;;
16181;SDS011;8197;51.664;7.114;2023-09-19T10:52:10;26.90;;;4.33;;
16181;SDS011;8197;51.664;7.114;2023-09-19T10:57:19;24.70;;;3.80;;
16181;SDS011;8197;51.664;7.114;2023-09-19T11:02:24;27.87;;;3.87;;
16181;SDS011;8197;51.664;7.114;2023-09-19T11:07:28;24.70;;;3.43;;
16181;SDS011;8197;51.664;7.114;2023-09-19T11:12:48;38.13;;;4.47;;
16181;SDS011;8197;51.664;7.114;2023-09-19T11:17:52;26.10;;;3.53;;
16181;SDS011;8197;51.664;7.114;2023-09-19T11:28:29;26.10;;;3.77;;
16181;SDS011;8197;51.664;7.114;2023-09-19T11:33:37;25.20;;;4.00;;
16181;SDS011;8197;51.664;7.114;2023-09-19T11:38:57;22.50;;;3.10;;
16181;SDS011;8197;51.664;7.114;2023-09-19T11:49:40;24.17;;;3.63;;
16181;SDS011;8197;51.664;7.114;2023-09-19T11:54:44;21.10;;;3.10;;
16181;SDS011;8197;51.664;7.114;2023-09-19T11:59:54;21.77;;;3.20;;
16181;SDS011;8197;51.664;7.114;2023-09-19T12:04:59;22.73;;;2.90;;
16181;SDS011;8197;51.664;7.114;2023-09-19T12:10:02;24.70;;;3.50;;
16181;SDS011;8197;51.664;7.114;2023-09-19T12:15:13;26.73;;;3.43;;
16181;SDS011;8197;51.664;7.114;2023-09-19T12:20:16;24.33;;;3.00;;
16181;SDS011;8197;51.664;7.114;2023-09-19T12:25:20;26.10;;;3.30;;
16181;SDS011;8197;51.664;7.114;2023-09-19T12:30:28;22.80;;;3.50;;
16181;SDS011;8197;51.664;7.114;2023-09-19T12:35:34;25.07;;;3.20;;
16181;SDS011;8197;51.664;7.114;2023-09-19T12:40:38;22.80;;;3.37;;
16181;SDS011;8197;51.664;7.114;2023-09-19T12:45:45;19.23;;;2.50;;
16181;SDS011;8197;51.664;7.114;2023-09-19T12:50:59;21.93;;;3.30;;
16181;SDS011;8197;51.664;7.114;2023-09-19T12:56:06;19.10;;;2.53;;
16181;SDS011;8197;51.664;7.114;2023-09-19T13:01:15;19.67;;;2.73;;
16181;SDS011;8197;51.664;7.114;2023-09-19T13:06:34;22.83;;;2.90;;
16181;SDS011;8197;51.664;7.114;2023-09-19T13:11:40;19.77;;;2.43;;
16181;SDS011;8197;51.664;7.114;2023-09-19T13:16:56;23.20;;;2.83;;
16181;SDS011;8197;51.664;7.114;2023-09-19T13:22:05;19.03;;;2.87;;
16181;SDS011;8197;51.664;7.114;2023-09-19T13:27:25;23.83;;;3.20;;
16181;SDS011;8197;51.664;7.114;2023-09-19T13:32:31;21.40;;;2.50;;
16181;SDS011;8197;51.664;7.114;2023-09-19T13:37:35;31.60;;;3.13;;
16181;SDS011;8197;51.664;7.114;2023-09-19T13:42:42;23.10;;;3.23;;
16181;SDS011;8197;51.664;7.114;2023-09-19T13:47:46;19.93;;;2.63;;
16181;SDS011;8197;51.664;7.114;2023-09-19T13:52:49;19.43;;;2.60;;
16181;SDS011;8197;51.664;7.114;2023-09-19T13:57:54;24.17;;;2.70;;
16181;SDS011;8197;51.664;7.114;2023-09-19T14:02:58;21.70;;;2.70;;
16181;SDS011;8197;51.664;7.114;2023-09-19T14:08:02;19.30;;;2.27;;
16181;SDS011;8197;51.664;7.114;2023-09-19T14:13:05;19.03;;;2.70;;
16181;SDS011;8197;51.664;7.114;2023-09-19T14:18:12;20.43;;;2.20;;
16181;SDS011;8197;51.664;7.114;2023-09-19T14:23:15;18.97;;;2.20;;
16181;SDS011;8197;51.664;7.114;2023-09-19T14:28:17;20.43;;;2.50;;
16181;SDS011;8197;51.664;7.114;2023-09-19T14:33:22;27.90;;;2.73;;
16181;SDS011;8197;51.664;7.114;2023-09-19T14:38:25;16.60;;;1.87;;
16181;SDS011;8197;51.664;7.114;2023-09-19T14:43:27;24.30;;;1.90;;
16181;SDS011;8197;51.664;7.114;2023-09-19T14:48:32;17.63;;;1.97;;
16181;SDS011;8197;51.664;7.114;2023-09-19T14:53:35;17.93;;;1.80;;
16181;SDS011;8197;51.664;7.114;2023-09-19T14:58:40;17.20;;;1.97;;
16181;SDS011;8197;51.664;7.114;2023-09-19T15:03:45;18.53;;;2.30;;
16181;SDS011;8197;51.664;7.114;2023-09-19T15:08:51;15.23;;;1.63;;
16181;SDS011;8197;51.664;7.114;2023-09-19T15:13:54;26.73;;;1.83;;
16181;SDS011;8197;51.664;7.114;2023-09-19T15:18:59;16.30;;;1.93;;
16181;SDS011;8197;51.664;7.114;2023-09-19T15:24:02;21.07;;;2.23;;
16181;SDS011;8197;51.664;7.114;2023-09-19T15:29:06;16.93;;;1.90;;
16181;SDS011;8197;51.664;7.114;2023-09-19T15:34:11;19.63;;;1.87;;
16181;SDS011;8197;51.664;7.114;2023-09-19T15:39:17;28.00;;;1.50;;
16181;SDS011;8197;51.664;7.114;2023-09-19T15:44:23;26.80;;;1.90;;
16181;SDS011;8197;51.664;7.114;2023-09-19T15:49:29;21.93;;;1.70;;
16181;SDS011;8197;51.664;7.114;2023-09-19T15:54:32;18.20;;;1.67;;
16181;SDS011;8197;51.664;7.114;2023-09-19T15:59:35;18.37;;;1.80;;
16181;SDS011;8197;51.664;7.114;2023-09-19T16:04:39;22.27;;;3.07;;
16181;SDS011;8197;51.664;7.114;2023-09-19T16:09:45;16.93;;;2.00;;
16181;SDS011;8197;51.664;7.114;2023-09-19T16:14:48;20.83;;;1.97;;
16181;SDS011;8197;51.664;7.114;2023-09-19T16:19:52;24.40;;;2.23;;
16181;SDS011;8197;51.664;7.114;2023-09-19T16:24:55;16.20;;;1.60;;
16181;SDS011;8197;51.664;7.114;2023-09-19T16:29:58;16.03;;;1.50;;
16181;SDS011;8197;51.664;7.114;2023-09-19T16:35:04;18.10;;;1.60;;
16181;SDS011;8197;51.664;7.114;2023-09-19T16:40:07;15.17;;;1.80;;
16181;SDS011;8197;51.664;7.114;2023-09-19T16:45:11;16.57;;;1.73;;
16181;SDS011;8197;51.664;7.114;2023-09-19T16:50:15;16.60;;;2.27;;
16181;SDS011;8197;51.664;7.114;2023-09-19T16:55:18;17.33;;;2.00;;
16181;SDS011;8197;51.664;7.114;2023-09-19T17:00:22;23.63;;;2.17;;
16181;SDS011;8197;51.664;7.114;2023-09-19T17:05:28;20.47;;;1.60;;
16181;SDS011;8197;51.664;7.114;2023-09-19T17:10:32;16.83;;;1.70;;
16181;SDS011;8197;51.664;7.114;2023-09-19T17:15:35;18.70;;;1.60;;
16181;SDS011;8197;51.664;7.114;2023-09-19T17:20:41;20.47;;;1.80;;
16181;SDS011;8197;51.664;7.114;2023-09-19T17:25:44;19.17;;;1.53;;
16181;SDS011;8197;51.664;7.114;2023-09-19T17:30:47;28.30;;;2.30;;
16181;SDS011;8197;51.664;7.114;2023-09-19T17:36:01;18.03;;;1.53;;
16181;SDS011;8197;51.664;7.114;2023-09-19T17:41:08;20.20;;;1.60;;
16181;SDS011;8197;51.664;7.114;2023-09-19T17:46:11;16.10;;;1.60;;
16181;SDS011;8197;51.664;7.114;2023-09-19T17:51:16;22.97;;;3.03;;
16181;SDS011;8197;51.664;7.114;2023-09-19T17:56:20;19.00;;;1.70;;
16181;SDS011;8197;51.664;7.114;2023-09-19T18:01:23;15.97;;;1.73;;
16181;SDS011;8197;51.664;7.114;2023-09-19T18:06:31;18.70;;;2.00;;
16181;SDS011;8197;51.664;7.114;2023-09-19T18:11:34;19.27;;;2.00;;
16181;SDS011;8197;51.664;7.114;2023-09-19T18:16:37;16.03;;;1.70;;
16181;SDS011;8197;51.664;7.114;2023-09-19T18:21:41;18.50;;;2.13;;
16181;SDS011;8197;51.664;7.114;2023-09-19T18:26:47;18.87;;;2.23;;
16181;SDS011;8197;51.664;7.114;2023-09-19T18:31:50;17.70;;;2.27;;
16181;SDS011;8197;51.664;7.114;2023-09-19T18:36:55;18.47;;;2.07;;
16181;SDS011;8197;51.664;7.114;2023-09-19T18:41:59;17.90;;;2.10;;
16181;SDS011;8197;51.664;7.114;2023-09-19T18:47:02;20.97;;;2.63;;
16181;SDS011;8197;51.664;7.114;2023-09-19T18:52:06;19.17;;;2.13;;
16181;SDS011;8197;51.664;7.114;2023-09-19T18:57:09;18.50;;;2.13;;
16181;SDS011;8197;51.664;7.114;2023-09-19T19:02:14;17.63;;;1.70;;
16181;SDS011;8197;51.664;7.114;2023-09-19T19:07:19;19.23;;;2.17;;
16181;SDS011;8197;51.664;7.114;2023-09-19T19:12:23;19.47;;;1.90;;
16181;SDS011;8197;51.664;7.114;2023-09-19T19:17:26;21.13;;;2.10;;
16181;SDS011;8197;51.664;7.114;2023-09-19T19:22:34;16.13;;;1.77;;
16181;SDS011;8197;51.664;7.114;2023-09-19T19:27:38;16.83;;;1.80;;
16181;SDS011;8197;51.664;7.114;2023-09-19T19:32:41;17.20;;;1.90;;
16181;SDS011;8197;51.664;7.114;2023-09-19T19:37:45;18.20;;;1.77;;
16181;SDS011;8197;51.664;7.114;2023-09-19T19:42:48;18.70;;;2.00;;
16181;SDS011;8197;51.664;7.114;2023-09-19T19:47:51;16.40;;;1.60;;
16181;SDS011;8197;51.664;7.114;2023-09-19T19:52:55;18.03;;;2.47;;
16181;SDS011;8197;51.664;7.114;2023-09-19T19:57:58;17.00;;;1.97;;
16181;SDS011;8197;51.664;7.114;2023-09-19T20:03:01;24.40;;;2.37;;
16181;SDS011;8197;51.664;7.114;2023-09-19T20:08:06;18.83;;;2.30;;
16181;SDS011;8197;51.664;7.114;2023-09-19T20:13:12;18.20;;;1.83;;
16181;SDS011;8197;51.664;7.114;2023-09-19T20:18:17;22.23;;;2.10;;
16181;SDS011;8197;51.664;7.114;2023-09-19T20:23:22;16.53;;;1.67;;
16181;SDS011;8197;51.664;7.114;2023-09-19T20:28:25;22.67;;;2.63;;
16181;SDS011;8197;51.664;7.114;2023-09-19T20:33:28;18.07;;;2.00;;
16181;SDS011;8197;51.664;7.114;2023-09-19T20:38:32;17.47;;;2.00;;
16181;SDS011;8197;51.664;7.114;2023-09-19T20:43:36;19.80;;;2.53;;
16181;SDS011;8197;51.664;7.114;2023-09-19T20:48:42;17.70;;;1.70;;
16181;SDS011;8197;51.664;7.114;2023-09-19T20:53:52;18.40;;;2.00;;
16181;SDS011;8197;51.664;7.114;2023-09-19T20:58:58;17.03;;;2.23;;
16181;SDS011;8197;51.664;7.114;2023-09-19T21:04:04;20.07;;;2.30;;
16181;SDS011;8197;51.664;7.114;2023-09-19T21:09:08;18.90;;;2.10;;
16181;SDS011;8197;51.664;7.114;2023-09-19T21:14:11;24.70;;;2.80;;
16181;SDS011;8197;51.664;7.114;2023-09-19T21:19:14;18.10;;;2.27;;
16181;SDS011;8197;51.664;7.114;2023-09-19T21:24:18;18.73;;;2.27;;
16181;SDS011;8197;51.664;7.114;2023-09-19T21:29:22;20.37;;;1.97;;
16181;SDS011;8197;51.664;7.114;2023-09-19T21:34:25;21.20;;;2.50;;
16181;SDS011;8197;51.664;7.114;2023-09-19T21:39:29;23.27;;;2.20;;
16181;SDS011;8197;51.664;7.114;2023-09-19T21:44:32;19.00;;;2.07;;
16181;SDS011;8197;51.664;7.114;2023-09-19T21:49:35;23.37;;;2.53;;
16181;SDS011;8197;51.664;7.114;2023-09-19T21:54:41;19.77;;;2.40;;
16181;SDS011;8197;51.664;7.114;2023-09-19T21:59:43;17.90;;;1.73;;
16181;SDS011;8197;51.664;7.114;2023-09-19T22:04:48;21.90;;;2.53;;
16181;SDS011;8197;51.664;7.114;2023-09-19T22:09:52;24.87;;;2.77;;
16181;SDS011;8197;51.664;7.114;2023-09-19T22:14:55;19.07;;;2.63;;
16181;SDS011;8197;51.664;7.114;2023-09-19T22:19:58;19.50;;;1.83;;
16181;SDS011;8197;51.664;7.114;2023-09-19T22:25:03;22.10;;;2.60;;
16181;SDS011;8197;51.664;7.114;2023-09-19T22:30:08;20.20;;;2.23;;
16181;SDS011;8197;51.664;7.114;2023-09-19T22:35:13;16.90;;;2.23;;
16181;SDS011;8197;51.664;7.114;2023-09-19T22:40:18;21.27;;;2.83;;
16181;SDS011;8197;51.664;7.114;2023-09-19T22:45:30;25.63;;;2.50;;
16181;SDS011;8197;51.664;7.114;2023-09-19T22:50:32;18.37;;;2.50;;
16181;SDS011;8197;51.664;7.114;2023-09-19T22:55:39;19.57;;;3.00;;
16181;SDS011;8197;51.664;7.114;2023-09-19T23:00:42;20.47;;;2.60;;
16181;SDS011;8197;51.664;7.114;2023-09-19T23:05:47;20.30;;;2.40;;
16181;SDS011;8197;51.664;7.114;2023-09-19T23:10:51;24.57;;;2.90;;
16181;SDS011;8197;51.664;7.114;2023-09-19T23:15:54;17.83;;;2.77;;
16181;SDS011;8197;51.664;7.114;2023-09-19T23:20:57;21.50;;;2.33;;
16181;SDS011;8197;51.664;7.114;2023-09-19T23:26:18;23.43;;;3.50;;
16181;SDS011;8197;51.664;7.114;2023-09-19T23:31:21;18.50;;;2.07;;
16181;SDS011;8197;51.664;7.114;2023-09-19T23:36:24;20.67;;;1.93;;
16181;SDS011;8197;51.664;7.114;2023-09-19T23:41:28;23.73;;;2.50;;
16181;SDS011;8197;51.664;7.114;2023-09-19T23:46:32;23.53;;;3.03;;
16181;SDS011;8197;51.664;7.114;2023-09-19T23:51:35;20.03;;;2.57;;
16181;SDS011;8197;51.664;7.114;2023-09-19T23:56:40;20.57;;;2.63;;
